sensor_id;sensor_type;location;lat;lon;timestamp;P1;durP1;ratioP1;P2;durP2;ratioP2
33357;SDS011;19717;42.614;23.418;2022-11-13T00:00:35;3.28;;;1.25;;
33357;SDS011;19717;42.614;23.418;2022-11-13T00:03:01;1.65;;;1.55;;
33357;SDS011;19717;42.614;23.418;2022-11-13T00:05:27;3.97;;;1.02;;
33357;SDS011;19717;42.614;23.418;2022-11-13T00:07:53;1.85;;;1.63;;
33357;SDS011;19717;42.614;23.418;2022-11-13T00:10:19;1.50;;;1.10;;
33357;SDS011;19717;42.614;23.418;2022-11-13T00:12:45;1.50;;;1.13;;
33357;SDS011;19717;42.614;23.418;2022-11-13T00:15:11;1.02;;;0.98;;
33357;SDS011;19717;42.614;23.418;2022-11-13T00:17:37;1.60;;;1.50;;
33357;SDS011;19717;42.614;23.418;2022-11-13T00:20:04;1.63;;;1.52;;
33357;SDS011;19717;42.614;23.418;2022-11-13T00:22:30;1.80;;;1.70;;
33357;SDS011;19717;42.614;23.418;2022-11-13T00:24:56;1.70;;;1.10;;
33357;SDS011;19717;42.614;23.418;2022-11-13T00:27:22;4.32;;;1.75;;
33357;SDS011;19717;42.614;23.418;2022-11-13T00:29:48;2.85;;;1.17;;
33357;SDS011;19717;42.614;23.418;2022-11-13T00:32:14;1.13;;;1.05;;
33357;SDS011;19717;42.614;23.418;2022-11-13T00:34:40;2.10;;;1.55;;
33357;SDS011;19717;42.614;23.418;2022-11-13T00:37:06;3.95;;;2.33;;
33357;SDS011;19717;42.614;23.418;2022-11-13T00:39:32;3.28;;;2.03;;
33357;SDS011;19717;42.614;23.418;2022-11-13T00:41:58;1.13;;;0.98;;
33357;SDS011;19717;42.614;23.418;2022-11-13T00:44:24;1.27;;;1.17;;
33357;SDS011;19717;42.614;23.418;2022-11-13T00:46:50;1.52;;;0.88;;
33357;SDS011;19717;42.614;23.418;2022-11-13T00:49:16;2.13;;;0.82;;
33357;SDS011;19717;42.614;23.418;2022-11-13T00:51:42;0.93;;;0.93;;
33357;SDS011;19717;42.614;23.418;2022-11-13T00:54:08;1.95;;;1.23;;
33357;SDS011;19717;42.614;23.418;2022-11-13T00:56:34;1.20;;;1.08;;
33357;SDS011;19717;42.614;23.418;2022-11-13T00:59:00;1.15;;;0.70;;
33357;SDS011;19717;42.614;23.418;2022-11-13T01:01:26;2.20;;;1.50;;
33357;SDS011;19717;42.614;23.418;2022-11-13T01:03:52;1.38;;;1.27;;
33357;SDS011;19717;42.614;23.418;2022-11-13T01:06:20;1.33;;;1.23;;
33357;SDS011;19717;42.614;23.418;2022-11-13T01:08:46;1.70;;;1.33;;
33357;SDS011;19717;42.614;23.418;2022-11-13T01:11:14;1.80;;;1.48;;
33357;SDS011;19717;42.614;23.418;2022-11-13T01:13:41;3.08;;;1.42;;
33357;SDS011;19717;42.614;23.418;2022-11-13T01:16:07;5.90;;;2.67;;
33357;SDS011;19717;42.614;23.418;2022-11-13T01:18:34;5.90;;;1.55;;
33357;SDS011;19717;42.614;23.418;2022-11-13T01:21:01;2.85;;;1.83;;
33357;SDS011;19717;42.614;23.418;2022-11-13T01:23:27;1.75;;;0.85;;
33357;SDS011;19717;42.614;23.418;2022-11-13T01:25:53;1.77;;;1.17;;
33357;SDS011;19717;42.614;23.418;2022-11-13T01:28:19;1.77;;;1.05;;
33357;SDS011;19717;42.614;23.418;2022-11-13T01:30:45;2.13;;;1.55;;
33357;SDS011;19717;42.614;23.418;2022-11-13T01:33:11;3.10;;;1.92;;
33357;SDS011;19717;42.614;23.418;2022-11-13T01:35:37;0.88;;;0.88;;
33357;SDS011;19717;42.614;23.418;2022-11-13T01:38:03;2.80;;;1.58;;
33357;SDS011;19717;42.614;23.418;2022-11-13T01:40:29;3.00;;;1.80;;
33357;SDS011;19717;42.614;23.418;2022-11-13T01:42:55;3.03;;;1.70;;
33357;SDS011;19717;42.614;23.418;2022-11-13T01:48:08;2.00;;;1.63;;
33357;SDS011;19717;42.614;23.418;2022-11-13T01:50:34;2.10;;;1.65;;
33357;SDS011;19717;42.614;23.418;2022-11-13T01:53:00;0.88;;;0.82;;
33357;SDS011;19717;42.614;23.418;2022-11-13T01:55:26;1.58;;;1.48;;
33357;SDS011;19717;42.614;23.418;2022-11-13T01:57:52;2.25;;;1.17;;
33357;SDS011;19717;42.614;23.418;2022-11-13T02:00:18;2.40;;;1.23;;
33357;SDS011;19717;42.614;23.418;2022-11-13T02:02:44;1.15;;;0.90;;
33357;SDS011;19717;42.614;23.418;2022-11-13T02:05:10;3.17;;;2.10;;
33357;SDS011;19717;42.614;23.418;2022-11-13T02:07:36;1.42;;;1.27;;
33357;SDS011;19717;42.614;23.418;2022-11-13T02:10:02;2.75;;;1.83;;
33357;SDS011;19717;42.614;23.418;2022-11-13T02:12:31;1.83;;;1.38;;
33357;SDS011;19717;42.614;23.418;2022-11-13T02:14:58;3.50;;;2.33;;
33357;SDS011;19717;42.614;23.418;2022-11-13T02:17:27;5.10;;;1.67;;
33357;SDS011;19717;42.614;23.418;2022-11-13T02:19:56;0.95;;;0.93;;
33357;SDS011;19717;42.614;23.418;2022-11-13T02:23:27;1.63;;;1.38;;
33357;SDS011;19717;42.614;23.418;2022-11-13T02:25:18;3.88;;;1.50;;
33357;SDS011;19717;42.614;23.418;2022-11-13T02:27:45;1.30;;;1.17;;
33357;SDS011;19717;42.614;23.418;2022-11-13T02:32:42;2.63;;;1.02;;
33357;SDS011;19717;42.614;23.418;2022-11-13T02:35:09;2.75;;;1.08;;
33357;SDS011;19717;42.614;23.418;2022-11-13T02:37:35;0.90;;;0.90;;
33357;SDS011;19717;42.614;23.418;2022-11-13T02:40:01;1.50;;;1.27;;
33357;SDS011;19717;42.614;23.418;2022-11-13T02:42:27;1.20;;;1.10;;
33357;SDS011;19717;42.614;23.418;2022-11-13T02:44:53;1.08;;;1.00;;
33357;SDS011;19717;42.614;23.418;2022-11-13T02:47:19;0.75;;;0.75;;
33357;SDS011;19717;42.614;23.418;2022-11-13T02:49:45;2.00;;;1.20;;
33357;SDS011;19717;42.614;23.418;2022-11-13T02:52:11;1.50;;;1.40;;
33357;SDS011;19717;42.614;23.418;2022-11-13T02:54:37;2.53;;;1.33;;
33357;SDS011;19717;42.614;23.418;2022-11-13T02:57:04;1.35;;;1.15;;
33357;SDS011;19717;42.614;23.418;2022-11-13T02:59:30;2.45;;;1.92;;
33357;SDS011;19717;42.614;23.418;2022-11-13T03:01:56;1.73;;;1.60;;
33357;SDS011;19717;42.614;23.418;2022-11-13T03:04:22;2.40;;;1.83;;
33357;SDS011;19717;42.614;23.418;2022-11-13T03:06:48;1.52;;;1.17;;
33357;SDS011;19717;42.614;23.418;2022-11-13T03:09:14;3.90;;;2.35;;
33357;SDS011;19717;42.614;23.418;2022-11-13T03:11:41;7.22;;;2.50;;
33357;SDS011;19717;42.614;23.418;2022-11-13T03:14:08;6.88;;;4.55;;
33357;SDS011;19717;42.614;23.418;2022-11-13T03:16:34;2.80;;;1.38;;
33357;SDS011;19717;42.614;23.418;2022-11-13T03:19:00;4.40;;;2.00;;
33357;SDS011;19717;42.614;23.418;2022-11-13T03:21:26;4.47;;;2.28;;
33357;SDS011;19717;42.614;23.418;2022-11-13T03:23:53;3.00;;;1.70;;
33357;SDS011;19717;42.614;23.418;2022-11-13T03:26:19;3.05;;;1.90;;
33357;SDS011;19717;42.614;23.418;2022-11-13T03:28:45;2.88;;;1.95;;
33357;SDS011;19717;42.614;23.418;2022-11-13T03:31:11;2.05;;;1.85;;
33357;SDS011;19717;42.614;23.418;2022-11-13T03:33:38;1.42;;;1.20;;
33357;SDS011;19717;42.614;23.418;2022-11-13T03:36:04;3.50;;;2.33;;
33357;SDS011;19717;42.614;23.418;2022-11-13T03:38:30;3.33;;;2.40;;
33357;SDS011;19717;42.614;23.418;2022-11-13T03:40:56;1.92;;;1.70;;
33357;SDS011;19717;42.614;23.418;2022-11-13T03:43:23;2.75;;;1.23;;
33357;SDS011;19717;42.614;23.418;2022-11-13T03:45:49;2.95;;;2.05;;
33357;SDS011;19717;42.614;23.418;2022-11-13T03:48:16;1.23;;;1.10;;
33357;SDS011;19717;42.614;23.418;2022-11-13T03:50:42;1.73;;;1.55;;
33357;SDS011;19717;42.614;23.418;2022-11-13T03:53:09;2.30;;;1.83;;
33357;SDS011;19717;42.614;23.418;2022-11-13T03:55:35;2.33;;;1.33;;
33357;SDS011;19717;42.614;23.418;2022-11-13T03:58:01;2.50;;;1.75;;
33357;SDS011;19717;42.614;23.418;2022-11-13T04:00:27;1.70;;;1.50;;
33357;SDS011;19717;42.614;23.418;2022-11-13T04:02:54;2.15;;;1.75;;
33357;SDS011;19717;42.614;23.418;2022-11-13T04:05:20;1.85;;;1.65;;
33357;SDS011;19717;42.614;23.418;2022-11-13T04:07:46;1.42;;;1.15;;
33357;SDS011;19717;42.614;23.418;2022-11-13T04:10:12;2.42;;;1.63;;
33357;SDS011;19717;42.614;23.418;2022-11-13T04:12:38;1.88;;;1.75;;
33357;SDS011;19717;42.614;23.418;2022-11-13T04:15:05;1.67;;;1.35;;
33357;SDS011;19717;42.614;23.418;2022-11-13T04:17:31;2.30;;;2.05;;
33357;SDS011;19717;42.614;23.418;2022-11-13T04:19:57;3.72;;;2.35;;
33357;SDS011;19717;42.614;23.418;2022-11-13T04:22:23;2.63;;;1.50;;
33357;SDS011;19717;42.614;23.418;2022-11-13T04:24:49;2.30;;;2.10;;
33357;SDS011;19717;42.614;23.418;2022-11-13T04:27:15;1.52;;;1.27;;
33357;SDS011;19717;42.614;23.418;2022-11-13T04:29:41;3.45;;;1.60;;
33357;SDS011;19717;42.614;23.418;2022-11-13T04:32:07;2.53;;;1.63;;
33357;SDS011;19717;42.614;23.418;2022-11-13T04:34:33;1.58;;;1.48;;
33357;SDS011;19717;42.614;23.418;2022-11-13T04:36:59;1.88;;;1.27;;
33357;SDS011;19717;42.614;23.418;2022-11-13T04:39:25;3.75;;;3.33;;
33357;SDS011;19717;42.614;23.418;2022-11-13T04:41:51;2.58;;;1.85;;
33357;SDS011;19717;42.614;23.418;2022-11-13T04:44:36;2.35;;;2.00;;
33357;SDS011;19717;42.614;23.418;2022-11-13T04:47:02;3.60;;;2.70;;
33357;SDS011;19717;42.614;23.418;2022-11-13T04:49:28;4.88;;;2.80;;
33357;SDS011;19717;42.614;23.418;2022-11-13T04:51:54;4.53;;;2.38;;
33357;SDS011;19717;42.614;23.418;2022-11-13T04:54:20;5.15;;;2.38;;
33357;SDS011;19717;42.614;23.418;2022-11-13T04:56:46;5.50;;;3.67;;
33357;SDS011;19717;42.614;23.418;2022-11-13T04:59:12;3.42;;;2.70;;
33357;SDS011;19717;42.614;23.418;2022-11-13T05:01:38;4.03;;;2.78;;
33357;SDS011;19717;42.614;23.418;2022-11-13T05:04:04;7.00;;;4.10;;
33357;SDS011;19717;42.614;23.418;2022-11-13T05:06:30;2.80;;;2.05;;
33357;SDS011;19717;42.614;23.418;2022-11-13T05:08:56;5.10;;;3.13;;
33357;SDS011;19717;42.614;23.418;2022-11-13T05:11:22;4.35;;;2.35;;
33357;SDS011;19717;42.614;23.418;2022-11-13T05:13:48;5.50;;;3.20;;
33357;SDS011;19717;42.614;23.418;2022-11-13T05:16:14;6.68;;;3.40;;
33357;SDS011;19717;42.614;23.418;2022-11-13T05:18:40;6.00;;;3.55;;
33357;SDS011;19717;42.614;23.418;2022-11-13T05:21:07;4.07;;;2.50;;
33357;SDS011;19717;42.614;23.418;2022-11-13T05:23:33;3.50;;;3.20;;
33357;SDS011;19717;42.614;23.418;2022-11-13T05:26:00;4.72;;;2.92;;
33357;SDS011;19717;42.614;23.418;2022-11-13T05:28:26;6.10;;;3.17;;
33357;SDS011;19717;42.614;23.418;2022-11-13T05:30:52;7.57;;;3.28;;
33357;SDS011;19717;42.614;23.418;2022-11-13T05:33:19;4.15;;;3.72;;
33357;SDS011;19717;42.614;23.418;2022-11-13T05:35:45;10.13;;;4.20;;
33357;SDS011;19717;42.614;23.418;2022-11-13T05:38:11;4.82;;;3.15;;
33357;SDS011;19717;42.614;23.418;2022-11-13T05:40:37;5.43;;;3.88;;
33357;SDS011;19717;42.614;23.418;2022-11-13T05:43:03;5.22;;;2.97;;
33357;SDS011;19717;42.614;23.418;2022-11-13T05:45:29;4.63;;;2.03;;
33357;SDS011;19717;42.614;23.418;2022-11-13T05:47:55;3.90;;;2.45;;
33357;SDS011;19717;42.614;23.418;2022-11-13T05:50:21;3.13;;;1.88;;
33357;SDS011;19717;42.614;23.418;2022-11-13T05:52:47;2.45;;;2.25;;
33357;SDS011;19717;42.614;23.418;2022-11-13T05:55:14;6.68;;;2.58;;
33357;SDS011;19717;42.614;23.418;2022-11-13T05:57:40;2.70;;;2.33;;
33357;SDS011;19717;42.614;23.418;2022-11-13T06:00:06;4.65;;;3.60;;
33357;SDS011;19717;42.614;23.418;2022-11-13T06:02:33;2.45;;;1.85;;
33357;SDS011;19717;42.614;23.418;2022-11-13T06:04:59;4.82;;;2.75;;
33357;SDS011;19717;42.614;23.418;2022-11-13T06:07:25;2.33;;;2.13;;
33357;SDS011;19717;42.614;23.418;2022-11-13T06:09:51;2.53;;;2.05;;
33357;SDS011;19717;42.614;23.418;2022-11-13T06:12:17;1.88;;;1.77;;
33357;SDS011;19717;42.614;23.418;2022-11-13T06:14:43;3.83;;;2.60;;
33357;SDS011;19717;42.614;23.418;2022-11-13T06:17:09;1.65;;;1.55;;
33357;SDS011;19717;42.614;23.418;2022-11-13T06:19:35;2.10;;;1.55;;
33357;SDS011;19717;42.614;23.418;2022-11-13T06:22:01;5.60;;;3.45;;
33357;SDS011;19717;42.614;23.418;2022-11-13T06:24:27;2.53;;;2.28;;
33357;SDS011;19717;42.614;23.418;2022-11-13T06:26:53;2.67;;;2.42;;
33357;SDS011;19717;42.614;23.418;2022-11-13T06:29:19;1.75;;;1.65;;
33357;SDS011;19717;42.614;23.418;2022-11-13T06:31:45;4.57;;;2.45;;
33357;SDS011;19717;42.614;23.418;2022-11-13T06:34:11;4.72;;;2.22;;
33357;SDS011;19717;42.614;23.418;2022-11-13T06:36:38;2.40;;;2.05;;
33357;SDS011;19717;42.614;23.418;2022-11-13T06:39:04;2.33;;;2.03;;
33357;SDS011;19717;42.614;23.418;2022-11-13T06:41:31;2.40;;;2.15;;
33357;SDS011;19717;42.614;23.418;2022-11-13T06:43:57;3.35;;;2.63;;
33357;SDS011;19717;42.614;23.418;2022-11-13T06:46:24;3.05;;;2.78;;
33357;SDS011;19717;42.614;23.418;2022-11-13T06:48:51;2.83;;;2.10;;
33357;SDS011;19717;42.614;23.418;2022-11-13T06:51:22;2.85;;;2.55;;
33357;SDS011;19717;42.614;23.418;2022-11-13T06:53:48;4.07;;;2.97;;
33357;SDS011;19717;42.614;23.418;2022-11-13T06:56:14;3.22;;;2.42;;
33357;SDS011;19717;42.614;23.418;2022-11-13T06:58:41;6.93;;;3.17;;
33357;SDS011;19717;42.614;23.418;2022-11-13T07:01:11;2.63;;;2.28;;
33357;SDS011;19717;42.614;23.418;2022-11-13T07:03:38;2.42;;;2.28;;
33357;SDS011;19717;42.614;23.418;2022-11-13T07:06:05;3.45;;;2.60;;
33357;SDS011;19717;42.614;23.418;2022-11-13T07:08:31;2.97;;;2.70;;
33357;SDS011;19717;42.614;23.418;2022-11-13T07:10:58;3.47;;;2.40;;
33357;SDS011;19717;42.614;23.418;2022-11-13T07:13:24;4.18;;;2.10;;
33357;SDS011;19717;42.614;23.418;2022-11-13T07:15:51;4.13;;;2.15;;
33357;SDS011;19717;42.614;23.418;2022-11-13T07:18:17;4.30;;;2.17;;
33357;SDS011;19717;42.614;23.418;2022-11-13T07:20:43;4.00;;;1.65;;
33357;SDS011;19717;42.614;23.418;2022-11-13T07:23:09;5.32;;;1.95;;
33357;SDS011;19717;42.614;23.418;2022-11-13T07:25:36;3.47;;;2.65;;
33357;SDS011;19717;42.614;23.418;2022-11-13T07:28:02;2.33;;;1.50;;
33357;SDS011;19717;42.614;23.418;2022-11-13T07:30:28;4.68;;;2.42;;
33357;SDS011;19717;42.614;23.418;2022-11-13T07:32:54;3.30;;;2.47;;
33357;SDS011;19717;42.614;23.418;2022-11-13T07:35:20;5.20;;;2.90;;
33357;SDS011;19717;42.614;23.418;2022-11-13T07:37:46;6.50;;;3.72;;
33357;SDS011;19717;42.614;23.418;2022-11-13T07:40:12;3.75;;;2.10;;
33357;SDS011;19717;42.614;23.418;2022-11-13T07:42:38;2.70;;;2.30;;
33357;SDS011;19717;42.614;23.418;2022-11-13T07:45:04;5.03;;;3.25;;
33357;SDS011;19717;42.614;23.418;2022-11-13T07:47:30;3.95;;;3.25;;
33357;SDS011;19717;42.614;23.418;2022-11-13T07:49:57;10.32;;;3.88;;
33357;SDS011;19717;42.614;23.418;2022-11-13T07:52:23;7.20;;;2.75;;
33357;SDS011;19717;42.614;23.418;2022-11-13T07:54:49;5.18;;;2.33;;
33357;SDS011;19717;42.614;23.418;2022-11-13T07:57:15;4.18;;;2.70;;
33357;SDS011;19717;42.614;23.418;2022-11-13T07:59:41;4.07;;;2.60;;
33357;SDS011;19717;42.614;23.418;2022-11-13T08:02:09;2.55;;;2.30;;
33357;SDS011;19717;42.614;23.418;2022-11-13T08:04:38;5.07;;;3.30;;
33357;SDS011;19717;42.614;23.418;2022-11-13T08:07:04;4.32;;;2.63;;
33357;SDS011;19717;42.614;23.418;2022-11-13T08:09:30;6.40;;;3.85;;
33357;SDS011;19717;42.614;23.418;2022-11-13T08:11:56;3.83;;;2.08;;
33357;SDS011;19717;42.614;23.418;2022-11-13T08:14:22;3.70;;;3.10;;
33357;SDS011;19717;42.614;23.418;2022-11-13T08:16:48;6.85;;;3.50;;
33357;SDS011;19717;42.614;23.418;2022-11-13T08:19:14;2.45;;;2.22;;
33357;SDS011;19717;42.614;23.418;2022-11-13T08:21:40;4.20;;;2.90;;
33357;SDS011;19717;42.614;23.418;2022-11-13T08:24:08;2.88;;;2.63;;
33357;SDS011;19717;42.614;23.418;2022-11-13T08:26:36;8.00;;;4.20;;
33357;SDS011;19717;42.614;23.418;2022-11-13T08:29:02;5.10;;;2.97;;
33357;SDS011;19717;42.614;23.418;2022-11-13T08:31:28;5.50;;;3.83;;
33357;SDS011;19717;42.614;23.418;2022-11-13T08:33:54;5.32;;;2.88;;
33357;SDS011;19717;42.614;23.418;2022-11-13T08:36:20;5.25;;;2.58;;
33357;SDS011;19717;42.614;23.418;2022-11-13T08:38:46;5.75;;;2.97;;
33357;SDS011;19717;42.614;23.418;2022-11-13T08:41:12;6.25;;;3.20;;
33357;SDS011;19717;42.614;23.418;2022-11-13T08:43:38;8.13;;;4.93;;
33357;SDS011;19717;42.614;23.418;2022-11-13T08:46:05;6.68;;;3.13;;
33357;SDS011;19717;42.614;23.418;2022-11-13T08:48:31;4.15;;;3.58;;
33357;SDS011;19717;42.614;23.418;2022-11-13T08:50:57;3.30;;;2.83;;
33357;SDS011;19717;42.614;23.418;2022-11-13T08:53:23;3.20;;;2.58;;
33357;SDS011;19717;42.614;23.418;2022-11-13T08:55:49;3.30;;;2.95;;
33357;SDS011;19717;42.614;23.418;2022-11-13T08:58:16;3.00;;;2.35;;
33357;SDS011;19717;42.614;23.418;2022-11-13T09:00:42;4.80;;;3.22;;
33357;SDS011;19717;42.614;23.418;2022-11-13T09:03:08;9.25;;;4.25;;
33357;SDS011;19717;42.614;23.418;2022-11-13T09:05:36;6.53;;;4.70;;
33357;SDS011;19717;42.614;23.418;2022-11-13T09:08:02;2.92;;;2.72;;
33357;SDS011;19717;42.614;23.418;2022-11-13T09:10:28;4.40;;;2.50;;
33357;SDS011;19717;42.614;23.418;2022-11-13T09:12:58;4.43;;;3.85;;
33357;SDS011;19717;42.614;23.418;2022-11-13T09:15:25;6.25;;;2.65;;
33357;SDS011;19717;42.614;23.418;2022-11-13T09:17:54;7.45;;;4.25;;
33357;SDS011;19717;42.614;23.418;2022-11-13T09:20:20;4.55;;;3.42;;
33357;SDS011;19717;42.614;23.418;2022-11-13T09:22:47;3.83;;;2.40;;
33357;SDS011;19717;42.614;23.418;2022-11-13T09:25:13;7.03;;;3.33;;
33357;SDS011;19717;42.614;23.418;2022-11-13T09:27:39;5.35;;;2.90;;
33357;SDS011;19717;42.614;23.418;2022-11-13T09:30:05;5.68;;;3.33;;
33357;SDS011;19717;42.614;23.418;2022-11-13T09:32:31;8.82;;;5.25;;
33357;SDS011;19717;42.614;23.418;2022-11-13T09:34:57;7.13;;;3.92;;
33357;SDS011;19717;42.614;23.418;2022-11-13T09:37:23;3.40;;;2.15;;
33357;SDS011;19717;42.614;23.418;2022-11-13T09:39:49;4.32;;;2.85;;
33357;SDS011;19717;42.614;23.418;2022-11-13T09:42:21;4.78;;;3.28;;
33357;SDS011;19717;42.614;23.418;2022-11-13T09:44:49;2.90;;;2.53;;
33357;SDS011;19717;42.614;23.418;2022-11-13T09:47:20;5.47;;;2.58;;
33357;SDS011;19717;42.614;23.418;2022-11-13T09:49:52;3.75;;;3.33;;
33357;SDS011;19717;42.614;23.418;2022-11-13T09:52:20;6.05;;;3.25;;
33357;SDS011;19717;42.614;23.418;2022-11-13T09:54:48;5.75;;;3.38;;
33357;SDS011;19717;42.614;23.418;2022-11-13T09:59:51;4.18;;;2.58;;
33357;SDS011;19717;42.614;23.418;2022-11-13T10:09:59;5.80;;;3.35;;
33357;SDS011;19717;42.614;23.418;2022-11-13T10:12:27;5.70;;;3.55;;
33357;SDS011;19717;42.614;23.418;2022-11-13T10:14:54;6.20;;;2.95;;
33357;SDS011;19717;42.614;23.418;2022-11-13T10:17:33;7.60;;;4.65;;
33357;SDS011;19717;42.614;23.418;2022-11-13T10:20:01;3.92;;;2.50;;
33357;SDS011;19717;42.614;23.418;2022-11-13T10:24:57;5.18;;;3.00;;
33357;SDS011;19717;42.614;23.418;2022-11-13T10:27:24;4.80;;;2.97;;
33357;SDS011;19717;42.614;23.418;2022-11-13T10:29:50;4.18;;;3.08;;
33357;SDS011;19717;42.614;23.418;2022-11-13T10:32:19;4.03;;;2.80;;
33357;SDS011;19717;42.614;23.418;2022-11-13T10:34:47;6.47;;;2.75;;
33357;SDS011;19717;42.614;23.418;2022-11-13T10:40:00;4.60;;;3.05;;
33357;SDS011;19717;42.614;23.418;2022-11-13T10:42:37;4.38;;;2.53;;
33357;SDS011;19717;42.614;23.418;2022-11-13T10:45:11;5.03;;;3.08;;
33357;SDS011;19717;42.614;23.418;2022-11-13T10:47:42;3.88;;;3.05;;
33357;SDS011;19717;42.614;23.418;2022-11-13T10:50:17;5.05;;;2.70;;
33357;SDS011;19717;42.614;23.418;2022-11-13T10:52:46;7.78;;;3.92;;
33357;SDS011;19717;42.614;23.418;2022-11-13T10:57:55;4.57;;;2.85;;
33357;SDS011;19717;42.614;23.418;2022-11-13T11:00:28;5.45;;;3.03;;
33357;SDS011;19717;42.614;23.418;2022-11-13T11:02:55;6.20;;;3.92;;
33357;SDS011;19717;42.614;23.418;2022-11-13T11:05:22;4.35;;;2.80;;
33357;SDS011;19717;42.614;23.418;2022-11-13T11:07:48;4.80;;;2.67;;
33357;SDS011;19717;42.614;23.418;2022-11-13T11:12:50;8.75;;;4.47;;
33357;SDS011;19717;42.614;23.418;2022-11-13T11:17:46;4.90;;;2.92;;
33357;SDS011;19717;42.614;23.418;2022-11-13T11:22:50;3.88;;;3.13;;
33357;SDS011;19717;42.614;23.418;2022-11-13T11:25:21;3.35;;;2.70;;
33357;SDS011;19717;42.614;23.418;2022-11-13T11:27:51;4.88;;;2.50;;
33357;SDS011;19717;42.614;23.418;2022-11-13T11:32:48;14.55;;;7.97;;
33357;SDS011;19717;42.614;23.418;2022-11-13T11:37:47;4.15;;;3.25;;
33357;SDS011;19717;42.614;23.418;2022-11-13T11:42:46;5.75;;;4.00;;
33357;SDS011;19717;42.614;23.418;2022-11-13T11:47:42;3.97;;;2.45;;
33357;SDS011;19717;42.614;23.418;2022-11-13T11:50:12;5.85;;;3.25;;
33357;SDS011;19717;42.614;23.418;2022-11-13T11:58:22;12.43;;;4.00;;
33357;SDS011;19717;42.614;23.418;2022-11-13T12:00:52;5.40;;;3.13;;
33357;SDS011;19717;42.614;23.418;2022-11-13T12:13:44;3.83;;;2.50;;
33357;SDS011;19717;42.614;23.418;2022-11-13T12:21:18;2.85;;;2.40;;
33357;SDS011;19717;42.614;23.418;2022-11-13T12:23:53;4.78;;;3.50;;
33357;SDS011;19717;42.614;23.418;2022-11-13T12:26:24;7.45;;;2.58;;
33357;SDS011;19717;42.614;23.418;2022-11-13T12:28:55;3.63;;;2.38;;
33357;SDS011;19717;42.614;23.418;2022-11-13T12:36:20;4.00;;;2.83;;
33357;SDS011;19717;42.614;23.418;2022-11-13T12:46:33;5.53;;;2.53;;
33357;SDS011;19717;42.614;23.418;2022-11-13T12:49:00;9.65;;;3.58;;
33357;SDS011;19717;42.614;23.418;2022-11-13T12:51:36;5.43;;;3.17;;
33357;SDS011;19717;42.614;23.418;2022-11-13T12:54:02;5.05;;;2.90;;
33357;SDS011;19717;42.614;23.418;2022-11-13T12:56:30;6.45;;;2.85;;
33357;SDS011;19717;42.614;23.418;2022-11-13T12:58:58;3.88;;;2.90;;
33357;SDS011;19717;42.614;23.418;2022-11-13T13:01:25;6.60;;;2.45;;
33357;SDS011;19717;42.614;23.418;2022-11-13T13:09:13;8.38;;;4.00;;
33357;SDS011;19717;42.614;23.418;2022-11-13T13:16:47;4.18;;;2.97;;
33357;SDS011;19717;42.614;23.418;2022-11-13T13:19:26;3.20;;;2.30;;
33357;SDS011;19717;42.614;23.418;2022-11-13T13:21:53;9.50;;;3.60;;
33357;SDS011;19717;42.614;23.418;2022-11-13T13:24:32;8.13;;;4.85;;
33357;SDS011;19717;42.614;23.418;2022-11-13T13:26:59;6.30;;;3.47;;
33357;SDS011;19717;42.614;23.418;2022-11-13T13:29:26;6.90;;;3.20;;
33357;SDS011;19717;42.614;23.418;2022-11-13T13:32:14;5.88;;;3.10;;
33357;SDS011;19717;42.614;23.418;2022-11-13T13:42:58;2.08;;;1.35;;
33357;SDS011;19717;42.614;23.418;2022-11-13T13:47:56;4.65;;;2.65;;
33357;SDS011;19717;42.614;23.418;2022-11-13T13:50:31;4.85;;;2.67;;
33357;SDS011;19717;42.614;23.418;2022-11-13T13:52:58;4.53;;;3.13;;
33357;SDS011;19717;42.614;23.418;2022-11-13T13:55:31;4.55;;;2.67;;
33357;SDS011;19717;42.614;23.418;2022-11-13T13:57:59;3.63;;;2.45;;
33357;SDS011;19717;42.614;23.418;2022-11-13T14:00:26;5.78;;;2.63;;
33357;SDS011;19717;42.614;23.418;2022-11-13T14:02:52;6.68;;;3.40;;
33357;SDS011;19717;42.614;23.418;2022-11-13T14:07:47;5.63;;;3.00;;
33357;SDS011;19717;42.614;23.418;2022-11-13T14:10:15;8.63;;;3.50;;
33357;SDS011;19717;42.614;23.418;2022-11-13T14:12:42;4.40;;;3.20;;
33357;SDS011;19717;42.614;23.418;2022-11-13T14:18:07;9.02;;;3.70;;
33357;SDS011;19717;42.614;23.418;2022-11-13T14:20:41;5.93;;;3.60;;
33357;SDS011;19717;42.614;23.418;2022-11-13T14:23:10;8.15;;;4.22;;
33357;SDS011;19717;42.614;23.418;2022-11-13T14:25:37;5.68;;;3.38;;
33357;SDS011;19717;42.614;23.418;2022-11-13T14:28:03;6.63;;;3.97;;
33357;SDS011;19717;42.614;23.418;2022-11-13T14:30:30;11.13;;;5.55;;
33357;SDS011;19717;42.614;23.418;2022-11-13T14:32:56;9.25;;;4.85;;
33357;SDS011;19717;42.614;23.418;2022-11-13T14:35:24;14.48;;;5.18;;
33357;SDS011;19717;42.614;23.418;2022-11-13T14:37:51;4.47;;;2.95;;
33357;SDS011;19717;42.614;23.418;2022-11-13T14:42:45;6.30;;;4.10;;
33357;SDS011;19717;42.614;23.418;2022-11-13T14:47:39;5.85;;;4.20;;
33357;SDS011;19717;42.614;23.418;2022-11-13T14:50:21;3.88;;;2.97;;
33357;SDS011;19717;42.614;23.418;2022-11-13T14:52:55;3.28;;;2.83;;
33357;SDS011;19717;42.614;23.418;2022-11-13T14:55:23;3.95;;;2.83;;
33357;SDS011;19717;42.614;23.418;2022-11-13T14:57:49;3.22;;;3.00;;
33357;SDS011;19717;42.614;23.418;2022-11-13T15:00:16;4.00;;;3.25;;
33357;SDS011;19717;42.614;23.418;2022-11-13T15:02:42;4.55;;;1.85;;
33357;SDS011;19717;42.614;23.418;2022-11-13T15:05:08;5.38;;;3.55;;
33357;SDS011;19717;42.614;23.418;2022-11-13T15:07:37;4.53;;;2.83;;
33357;SDS011;19717;42.614;23.418;2022-11-13T15:10:04;4.95;;;2.03;;
33357;SDS011;19717;42.614;23.418;2022-11-13T15:12:30;4.78;;;3.08;;
33357;SDS011;19717;42.614;23.418;2022-11-13T15:14:56;4.57;;;2.78;;
33357;SDS011;19717;42.614;23.418;2022-11-13T15:17:22;7.97;;;4.72;;
33357;SDS011;19717;42.614;23.418;2022-11-13T15:19:50;2.78;;;2.58;;
33357;SDS011;19717;42.614;23.418;2022-11-13T15:22:17;5.50;;;2.40;;
33357;SDS011;19717;42.614;23.418;2022-11-13T15:24:44;5.55;;;2.67;;
33357;SDS011;19717;42.614;23.418;2022-11-13T15:27:14;3.80;;;3.38;;
33357;SDS011;19717;42.614;23.418;2022-11-13T15:29:40;9.52;;;4.00;;
33357;SDS011;19717;42.614;23.418;2022-11-13T15:32:10;6.25;;;4.00;;
33357;SDS011;19717;42.614;23.418;2022-11-13T15:34:37;19.10;;;4.00;;
33357;SDS011;19717;42.614;23.418;2022-11-13T15:37:12;3.53;;;2.55;;
33357;SDS011;19717;42.614;23.418;2022-11-13T15:39:39;4.93;;;2.30;;
33357;SDS011;19717;42.614;23.418;2022-11-13T15:42:05;5.82;;;3.35;;
33357;SDS011;19717;42.614;23.418;2022-11-13T15:44:32;9.82;;;6.35;;
33357;SDS011;19717;42.614;23.418;2022-11-13T15:46:58;14.43;;;6.85;;
33357;SDS011;19717;42.614;23.418;2022-11-13T15:49:24;12.68;;;8.05;;
33357;SDS011;19717;42.614;23.418;2022-11-13T15:51:51;7.15;;;4.85;;
33357;SDS011;19717;42.614;23.418;2022-11-13T15:54:24;11.55;;;6.43;;
33357;SDS011;19717;42.614;23.418;2022-11-13T15:56:52;11.77;;;5.15;;
33357;SDS011;19717;42.614;23.418;2022-11-13T15:59:18;10.00;;;5.57;;
33357;SDS011;19717;42.614;23.418;2022-11-13T16:01:44;8.60;;;6.93;;
33357;SDS011;19717;42.614;23.418;2022-11-13T16:04:11;8.93;;;6.43;;
33357;SDS011;19717;42.614;23.418;2022-11-13T16:06:38;9.65;;;5.10;;
33357;SDS011;19717;42.614;23.418;2022-11-13T16:09:05;10.40;;;7.82;;
33357;SDS011;19717;42.614;23.418;2022-11-13T16:11:32;27.38;;;12.20;;
33357;SDS011;19717;42.614;23.418;2022-11-13T16:13:58;23.58;;;12.93;;
33357;SDS011;19717;42.614;23.418;2022-11-13T16:16:29;17.00;;;9.55;;
33357;SDS011;19717;42.614;23.418;2022-11-13T16:18:57;16.60;;;8.63;;